Time;durP1;ratioP1;P1;durP2;ratioP2;P2;SDS_P1;SDS_P2;PMS_P1;PMS_P2;Temp;Humidity;BMP_temperature;BMP_pressure;BME280_temperature;BME280_humidity;BME280_pressure;Samples;Min_cycle;Max_cycle;Signal;HPM_P1;HPM_P2
2021/09/02 00:00:53;;;;;;;;;23.25;21.25;;;;;17.63;59.45;102250.03;6273963;22;45203;-56
2021/09/02 05:29:36;;;;;;;;;31.25;23.75;;;;;14.67;69.26;102136.41;5042074;28;45279;-57
2021/09/02 05:32:02;;;;;;;;;39.25;30.00;;;;;14.79;68.75;102141.06;5017316;28;45260;-55
2021/09/02 05:34:28;;;;;;;;;36.75;28.00;;;;;14.91;68.17;102138.69;5017403;28;45320;-55
2021/09/02 05:36:53;;;;;;;;;28.75;22.50;;;;;15.00;68.26;102127.56;5018207;28;45253;-55
2021/09/02 05:39:19;;;;;;;;;31.25;27.50;;;;;15.07;67.95;102126.25;5036886;28;45271;-55
2021/09/02 05:41:48;;;;;;;;;26.50;23.25;;;;;15.15;67.68;102124.03;5037209;28;45203;-55
2021/09/02 05:44:13;;;;;;;;;28.75;26.25;;;;;15.24;67.45;102118.19;5037471;28;45336;-55
2021/09/02 05:46:39;;;;;;;;;36.00;31.00;;;;;15.30;67.31;102125.81;5037297;28;45413;-55
2021/09/02 05:49:05;;;;;;;;;31.25;26.50;;;;;15.32;66.98;102126.63;5036965;28;45427;-54
2021/09/02 05:51:30;;;;;;;;;38.25;27.75;;;;;15.34;66.88;102135.34;5036764;28;45333;-55
2021/09/02 05:53:55;;;;;;;;;35.50;26.25;;;;;15.40;66.71;102128.81;5035549;28;45311;-56
2021/09/02 05:56:21;;;;;;;;;32.75;25.50;;;;;15.49;66.36;102133.63;5017234;28;45440;-56
2021/09/02 05:58:46;;;;;;;;;37.75;30.50;;;;;15.56;66.23;102134.97;5016802;28;45982;-56
2021/09/02 06:01:14;;;;;;;;;33.25;30.25;;;;;15.68;66.19;102135.22;5017030;28;45176;-55
2021/09/02 06:03:40;;;;;;;;;41.00;30.00;;;;;15.81;65.76;102134.44;5016547;28;45312;-56
2021/09/02 06:06:05;;;;;;;;;31.50;24.25;;;;;15.93;65.60;102131.97;5016726;28;45268;-56
2021/09/02 06:08:33;;;;;;;;;29.50;24.75;;;;;16.03;65.20;102127.81;5016502;28;45214;-54
2021/09/02 06:11:02;;;;;;;;;33.00;28.25;;;;;16.10;65.09;102132.66;5016668;28;45342;-53
2021/09/02 06:13:28;;;;;;;;;31.75;29.25;;;;;16.12;64.93;102128.13;5016942;28;45542;-55
2021/09/02 06:15:54;;;;;;;;;30.75;25.75;;;;;16.22;64.79;102127.56;5016867;28;45257;-53
2021/09/02 06:18:19;;;;;;;;;36.00;27.00;;;;;16.35;64.51;102128.50;5016586;28;45273;-54
2021/09/02 06:20:44;;;;;;;;;36.50;30.25;;;;;16.43;64.07;102134.22;5016404;28;45376;-55
2021/09/02 06:23:10;;;;;;;;;39.50;29.25;;;;;16.46;63.96;102140.22;5016545;28;45232;-56
2021/09/02 06:25:36;;;;;;;;;35.25;28.75;;;;;16.53;63.93;102134.53;5029633;28;45251;-56
2021/09/02 06:28:01;;;;;;;;;36.25;28.50;;;;;16.59;63.69;102128.78;5036000;28;45972;-56
2021/09/02 06:30:27;;;;;;;;;36.00;28.50;;;;;16.65;63.44;102131.94;5011337;28;45411;-55
2021/09/02 06:32:52;;;;;;;;;35.25;26.75;;;;;16.69;63.34;102130.84;5003191;28;45317;-55
2021/09/02 06:35:17;;;;;;;;;36.25;28.50;;;;;16.71;63.26;102136.91;5003219;28;45368;-55
2021/09/02 06:37:43;;;;;;;;;34.25;26.25;;;;;16.71;63.03;102139.56;5003044;28;46171;-55
2021/09/02 06:40:09;;;;;;;;;35.50;26.75;;;;;16.63;63.15;102135.66;5003212;28;45356;-56
2021/09/02 06:42:35;;;;;;;;;33.00;28.75;;;;;16.66;63.06;102143.44;5003248;28;45300;-54
2021/09/02 06:45:00;;;;;;;;;29.25;28.75;;;;;16.71;63.11;102147.56;5003481;28;45623;-56
2021/09/02 06:47:25;;;;;;;;;32.75;27.25;;;;;16.74;62.98;102149.16;5003017;28;45906;-56
2021/09/02 06:49:51;;;;;;;;;34.50;28.75;;;;;16.79;62.81;102149.75;5002677;28;45269;-56
2021/09/02 06:52:16;;;;;;;;;30.25;25.00;;;;;16.80;62.72;102148.78;5002737;28;45335;-55
2021/09/02 06:54:42;;;;;;;;;32.25;27.00;;;;;16.82;62.74;102146.88;5002937;28;45378;-57
2021/09/02 06:57:07;;;;;;;;;44.00;27.25;;;;;16.84;62.73;102152.97;5002143;28;46270;-56
2021/09/02 06:59:33;;;;;;;;;38.25;29.75;;;;;16.90;62.54;102146.38;5002670;28;45242;-57
2021/09/02 07:01:58;;;;;;;;;34.50;28.50;;;;;16.92;62.58;102141.84;5002886;28;45245;-57
2021/09/02 07:04:24;;;;;;;;;34.25;29.25;;;;;16.92;62.36;102141.84;5003096;28;45239;-55
2021/09/02 07:06:49;;;;;;;;;36.25;27.50;;;;;16.91;62.53;102141.00;5002306;28;45260;-57
2021/09/02 07:09:15;;;;;;;;;31.00;26.25;;;;;16.92;62.35;102137.38;5002672;28;45313;-55
2021/09/02 07:11:40;;;;;;;;;36.75;31.75;;;;;16.95;62.49;102139.81;5002806;28;45337;-55
2021/09/02 07:14:06;;;;;;;;;34.25;26.75;;;;;16.93;62.24;102140.88;5002881;28;45475;-55
2021/09/02 07:16:31;;;;;;;;;39.25;28.25;;;;;16.89;62.20;102134.03;5002567;28;46086;-56
2021/09/02 07:18:57;;;;;;;;;33.75;31.00;;;;;16.90;62.46;102136.59;5002650;28;45374;-57
2021/09/02 07:21:22;;;;;;;;;35.50;30.50;;;;;16.95;62.44;102136.31;5002410;28;45395;-57
2021/09/02 07:23:48;;;;;;;;;38.75;26.25;;;;;16.97;62.32;102135.25;5002619;28;45383;-58
2021/09/02 07:26:14;;;;;;;;;38.50;29.75;;;;;17.00;62.51;102131.56;5009185;28;46214;-57
2021/09/02 07:28:40;;;;;;;;;37.75;30.50;;;;;17.03;62.44;102142.00;5020272;28;45518;-58
2021/09/02 07:31:06;;;;;;;;;30.50;27.00;;;;;17.08;62.33;102144.38;5009099;28;45459;-57
2021/09/02 07:33:31;;;;;;;;;30.50;27.25;;;;;17.09;62.28;102154.94;5007984;28;45323;-58
2021/09/02 07:35:57;;;;;;;;;35.00;27.25;;;;;17.11;62.30;102158.34;5002184;28;45388;-57
2021/09/02 07:38:23;;;;;;;;;33.25;31.50;;;;;17.16;62.22;102156.25;5002231;28;45312;-57
2021/09/02 07:40:48;;;;;;;;;62.25;45.25;;;;;17.18;62.11;102154.34;5001523;28;45323;-58
2021/09/02 07:43:14;;;;;;;;;32.50;30.00;;;;;17.23;62.10;102148.72;5002505;28;45189;-58
2021/09/02 07:45:39;;;;;;;;;29.00;27.50;;;;;17.27;62.39;102147.56;5002388;28;46091;-58
2021/09/02 07:48:05;;;;;;;;;30.75;25.25;;;;;17.34;62.39;102156.00;5002250;28;45314;-57
2021/09/02 07:50:30;;;;;;;;;35.75;27.50;;;;;17.42;61.99;102145.69;5002220;28;45296;-57
2021/09/02 07:52:56;;;;;;;;;32.00;28.00;;;;;17.47;61.82;102141.78;5002421;28;45217;-58
2021/09/02 07:55:21;;;;;;;;;27.75;24.25;;;;;17.53;61.88;102141.34;5002246;28;45240;-58
2021/09/02 07:57:47;;;;;;;;;29.75;24.75;;;;;17.62;61.75;102139.06;5002046;28;45159;-57
2021/09/02 08:00:14;;;;;;;;;34.00;29.00;;;;;17.69;61.64;102135.00;5002220;28;45388;-57
2021/09/02 08:02:40;;;;;;;;;36.25;28.25;;;;;17.74;61.54;102130.28;5002179;28;45549;-58
2021/09/02 08:05:06;;;;;;;;;33.00;26.25;;;;;17.77;61.21;102130.06;5001509;28;45368;-58
2021/09/02 08:07:42;;;;;;;;;32.25;26.25;;;;;17.81;60.89;102139.56;5001651;28;45282;-58
2021/09/02 08:10:08;;;;;;;;;28.00;24.75;;;;;17.84;61.22;102140.19;5002141;28;45377;-57
2021/09/02 08:12:33;;;;;;;;;35.00;27.25;;;;;17.89;60.91;102153.22;5001938;28;45576;-58
2021/09/02 08:14:59;;;;;;;;;35.00;30.75;;;;;17.92;61.03;102142.34;5001755;28;46102;-58
2021/09/02 08:17:24;;;;;;;;;31.75;25.00;;;;;17.98;61.13;102147.25;5001600;28;45174;-58
2021/09/02 08:19:50;;;;;;;;;30.25;24.00;;;;;18.03;61.14;102133.63;5001557;28;45371;-58
2021/09/02 08:22:15;;;;;;;;;32.75;25.50;;;;;18.06;60.71;102138.75;5001990;28;45254;-58
2021/09/02 08:24:41;;;;;;;;;29.00;25.75;;;;;18.08;60.68;102132.34;5001651;28;46034;-58
2021/09/02 08:27:06;;;;;;;;;34.25;27.75;;;;;18.10;60.93;102133.13;5017135;28;45245;-58
2021/09/02 08:29:32;;;;;;;;;34.00;30.50;;;;;18.11;60.62;102136.63;5012750;28;45234;-58
2021/09/02 08:31:57;;;;;;;;;31.00;25.00;;;;;18.13;60.81;102132.88;5001669;28;45369;-58
2021/09/02 08:34:22;;;;;;;;;34.25;25.75;;;;;18.14;60.30;102131.06;5001625;28;45344;-58
2021/09/02 08:36:48;;;;;;;;;31.75;23.75;;;;;18.22;60.77;102123.38;5001149;28;45407;-58
2021/09/02 08:39:13;;;;;;;;;31.75;25.75;;;;;18.33;60.60;102118.19;5001505;28;45435;-57
2021/09/02 08:41:39;;;;;;;;;29.50;25.50;;;;;18.41;60.32;102115.81;5001625;28;45305;-57
2021/09/02 08:44:05;;;;;;;;;29.25;24.00;;;;;18.48;60.49;102115.38;5001465;28;45644;-57
2021/09/02 08:46:31;;;;;;;;;29.50;26.25;;;;;18.54;60.17;102110.47;5001260;28;45547;-57
2021/09/02 08:49:00;;;;;;;;;25.50;23.00;;;;;18.62;59.94;102107.25;5001406;28;45260;-57
2021/09/02 08:51:26;;;;;;;;;37.25;26.75;;;;;18.65;60.10;102099.91;5001142;28;45221;-57
2021/09/02 08:53:54;;;;;;;;;36.25;29.00;;;;;18.72;60.02;102097.63;5000860;28;46013;-58
2021/09/02 08:56:19;;;;;;;;;29.75;27.00;;;;;18.80;59.82;102099.75;5001202;28;45328;-57
2021/09/02 08:58:45;;;;;;;;;30.00;25.50;;;;;18.91;59.66;102100.69;5001430;28;45313;-58
2021/09/02 09:01:11;;;;;;;;;31.25;26.00;;;;;19.02;59.65;102096.38;5001493;28;45344;-58
2021/09/02 09:03:38;;;;;;;;;27.00;26.00;;;;;19.15;59.36;102091.84;5001078;28;45387;-58
2021/09/02 09:06:07;;;;;;;;;33.50;28.50;;;;;19.23;59.24;102084.97;5000781;28;45251;-58
2021/09/02 09:08:41;;;;;;;;;34.00;28.75;;;;;19.31;58.77;102086.22;5001280;28;45412;-58
2021/09/02 09:11:26;;;;;;;;;42.25;33.25;;;;;19.36;59.20;102092.94;5001036;28;45225;-58
2021/09/02 09:14:06;;;;;;;;;29.75;24.50;;;;;19.42;58.72;102086.25;5000999;28;46235;-58
2021/09/02 09:16:50;;;;;;;;;30.75;27.50;;;;;19.48;58.36;102097.34;5001029;28;45241;-58
2021/09/02 09:19:35;;;;;;;;;34.25;25.75;;;;;19.54;58.36;102093.38;5001023;28;45443;-57
2021/09/02 09:22:01;;;;;;;;;86.67;74.67;;;;;19.60;58.28;102081.41;5000879;28;45467;-58
2021/09/02 09:24:56;;;;;;;;;48.00;36.75;;;;;19.72;58.54;102078.63;5001155;28;46031;-57
2021/09/02 09:27:54;;;;;;;;;30.50;26.25;;;;;19.82;58.47;102076.09;5018107;28;45601;-58
2021/09/02 09:30:24;;;;;;;;;24.50;21.75;;;;;19.85;58.45;102078.53;5005359;28;45298;-58
2021/09/02 09:32:52;;;;;;;;;35.50;27.50;;;;;19.95;57.71;102074.19;5001003;28;45459;-57
2021/09/02 09:35:22;;;;;;;;;27.25;23.75;;;;;20.02;57.97;102075.41;4999008;28;46228;-58
2021/09/02 09:37:50;;;;;;;;;23.00;19.75;;;;;20.15;57.97;102071.78;5000652;28;45483;-58
2021/09/02 09:40:23;;;;;;;;;25.75;22.25;;;;;20.26;57.64;102072.63;5000740;28;45291;-58
2021/09/02 09:43:00;;;;;;;;;27.75;23.50;;;;;20.36;57.34;102062.03;5001053;28;45317;-58
2021/09/02 09:45:41;;;;;;;;;21.00;18.00;;;;;20.44;56.76;102069.50;5000423;28;45321;-58
2021/09/02 09:48:22;;;;;;;;;27.25;21.75;;;;;20.51;56.77;102068.03;5000610;28;45395;-58
2021/09/02 09:51:10;;;;;;;;;24.25;21.50;;;;;20.57;56.82;102064.88;5000533;28;45329;-58
2021/09/02 09:53:37;;;;;;;;;29.00;23.25;;;;;20.61;56.41;102061.81;5000752;28;45278;-58
2021/09/02 09:56:04;;;;;;;;;31.25;22.25;;;;;20.65;56.21;102054.38;5000347;28;45348;-58
2021/09/02 09:58:29;;;;;;;;;28.25;25.25;;;;;20.73;56.40;102064.47;5000229;28;45273;-58
2021/09/02 10:01:00;;;;;;;;;23.25;20.00;;;;;20.78;55.85;102052.44;5000648;28;45281;-58
2021/09/02 10:03:29;;;;;;;;;38.50;33.75;;;;;20.85;56.15;102050.94;5007696;28;45162;-58
2021/09/02 10:05:59;;;;;;;;;27.50;23.25;;;;;20.89;55.92;102049.72;5022663;28;46582;-59
2021/09/02 10:08:26;;;;;;;;;22.25;21.50;;;;;20.96;56.09;102038.50;5023786;28;45286;-58
2021/09/02 10:10:52;;;;;;;;;31.50;23.00;;;;;21.02;55.68;102044.22;5023698;28;45300;-58
2021/09/02 10:13:18;;;;;;;;;22.25;21.50;;;;;21.03;55.38;102048.59;5023754;28;45326;-58
2021/09/02 10:15:45;;;;;;;;;26.75;25.50;;;;;21.06;55.82;102050.16;5023295;28;46090;-59
2021/09/02 10:18:10;;;;;;;;;31.25;24.50;;;;;21.12;55.52;102034.41;5023439;28;45253;-58
2021/09/02 10:20:38;;;;;;;;;23.50;20.25;;;;;21.18;55.34;102030.38;5023055;28;45323;-58
2021/09/02 10:23:05;;;;;;;;;29.75;22.75;;;;;21.30;55.15;102032.03;5014747;28;45245;-58
2021/09/02 10:25:34;;;;;;;;;26.75;22.00;;;;;21.42;54.85;102038.22;5003127;28;45387;-58
2021/09/02 10:28:02;;;;;;;;;24.00;21.50;;;;;21.52;54.88;102041.81;5003797;28;45277;-58
2021/09/02 10:30:28;;;;;;;;;24.25;21.25;;;;;21.58;54.59;102035.09;5005276;28;45242;-58
2021/09/02 10:32:56;;;;;;;;;23.75;19.75;;;;;21.63;54.54;102036.38;5013329;28;45522;-59
2021/09/02 10:35:25;;;;;;;;;25.00;21.75;;;;;21.72;54.29;102035.63;5022647;28;45961;-59
2021/09/02 10:37:52;;;;;;;;;18.00;16.50;;;;;21.82;54.04;102029.44;5023085;28;45332;-58
2021/09/02 10:40:17;;;;;;;;;22.75;19.75;;;;;21.85;53.70;102029.16;5022659;28;45301;-58
2021/09/02 10:42:51;;;;;;;;;24.25;17.75;;;;;21.87;53.35;102020.00;5022782;28;45626;-58
2021/09/02 10:45:25;;;;;;;;;24.00;19.00;;;;;21.95;53.12;102014.81;5022748;28;45499;-58
2021/09/02 10:47:55;;;;;;;;;22.50;18.75;;;;;22.05;53.43;102014.03;5022998;28;45273;-58
2021/09/02 10:50:27;;;;;;;;;21.25;19.00;;;;;22.14;52.71;102015.94;5022504;28;45232;-58
2021/09/02 10:52:53;;;;;;;;;22.00;15.75;;;;;22.19;52.77;102019.06;5022498;28;45189;-58
2021/09/02 10:55:33;;;;;;;;;17.25;17.00;;;;;22.27;52.84;102020.06;5022267;28;45246;-58
2021/09/02 10:58:02;;;;;;;;;18.25;17.25;;;;;22.36;52.28;102020.25;5021801;28;45329;-58
2021/09/02 11:00:39;;;;;;;;;16.00;14.50;;;;;22.41;51.86;102013.47;5022759;28;45380;-58
2021/09/02 11:03:18;;;;;;;;;20.50;20.00;;;;;22.44;51.95;102007.00;5022582;28;45237;-58
2021/09/02 11:05:56;;;;;;;;;19.75;18.25;;;;;22.51;51.35;102011.69;5022276;28;45407;-58
2021/09/02 11:08:37;;;;;;;;;17.75;15.50;;;;;22.57;51.48;102015.63;5020960;28;45391;-58
2021/09/02 11:11:17;;;;;;;;;14.50;12.25;;;;;22.62;51.44;102008.03;5022435;28;45393;-58
2021/09/02 11:13:45;;;;;;;;;20.00;17.75;;;;;22.71;50.98;102001.81;5022480;28;45455;-58
2021/09/02 11:16:16;;;;;;;;;21.25;19.00;;;;;22.79;50.67;102012.72;5021881;28;46341;-57
2021/09/02 11:18:44;;;;;;;;;23.50;19.50;;;;;22.80;50.83;102014.41;5022105;28;45332;-57
2021/09/02 11:21:13;;;;;;;;;18.50;16.00;;;;;22.84;50.01;102012.31;5022152;28;45213;-48
2021/09/02 11:23:44;;;;;;;;;17.25;15.50;;;;;22.89;50.33;102020.81;5008527;28;45456;-58
2021/09/02 11:26:11;;;;;;;;;20.50;18.00;;;;;22.97;50.23;102018.28;5002028;28;45250;-58
2021/09/02 11:28:48;;;;;;;;;18.25;13.00;;;;;23.10;50.13;102018.00;5006451;28;45276;-58
2021/09/02 11:31:13;;;;;;;;;19.50;15.50;;;;;23.21;49.43;101996.34;5001767;28;45427;-58
2021/09/02 11:33:47;;;;;;;;;15.75;15.25;;;;;23.32;49.28;102014.19;5002271;28;45511;-58
2021/09/02 11:36:12;;;;;;;;;16.75;13.50;;;;;23.34;48.53;102012.19;5002025;28;46126;-58
2021/09/02 11:38:38;;;;;;;;;19.50;14.75;;;;;23.38;48.16;102018.97;5001978;28;45273;-58
2021/09/02 11:41:22;;;;;;;;;15.75;11.75;;;;;23.45;48.08;102013.88;5002367;28;45351;-58
2021/09/02 11:43:52;;;;;;;;;18.75;16.00;;;;;23.52;47.77;102001.53;5002121;28;45376;-58
2021/09/02 11:46:19;;;;;;;;;11.25;11.25;;;;;23.59;47.12;102002.66;5002141;28;45245;-58
2021/09/02 11:48:52;;;;;;;;;14.50;12.50;;;;;23.63;47.16;102001.44;5002186;28;45306;-58
2021/09/02 11:51:20;;;;;;;;;14.25;12.25;;;;;23.69;46.86;101998.13;5001948;28;45776;-58
2021/09/02 11:53:49;;;;;;;;;18.50;14.00;;;;;23.74;47.24;101995.03;5002189;28;45178;-58
2021/09/02 11:56:18;;;;;;;;;16.75;16.50;;;;;23.79;46.97;101996.28;5001919;28;45488;-58
2021/09/02 11:58:45;;;;;;;;;16.50;15.75;;;;;23.84;46.71;101985.91;5001903;28;45356;-58
2021/09/02 12:01:10;;;;;;;;;16.25;13.75;;;;;23.90;46.05;101979.94;5002066;28;45322;-58
2021/09/02 12:03:36;;;;;;;;;23.25;14.00;;;;;24.00;45.99;101982.59;5002180;28;45621;-58
2021/09/02 12:06:03;;;;;;;;;15.50;14.75;;;;;24.04;45.73;101975.94;5001517;28;45455;-58
2021/09/02 12:08:29;;;;;;;;;18.00;15.00;;;;;24.09;45.83;101981.69;5001827;28;45367;-58
2021/09/02 12:10:55;;;;;;;;;17.50;14.00;;;;;24.13;46.05;101976.88;5002109;28;45370;-58
2021/09/02 12:13:36;;;;;;;;;16.25;12.50;;;;;24.20;45.99;101989.59;5002062;28;45527;-58
2021/09/02 12:16:09;;;;;;;;;13.25;12.25;;;;;24.23;45.31;101975.81;5001756;28;45432;-58
2021/09/02 12:18:39;;;;;;;;;50.50;41.00;;;;;24.27;44.86;101975.53;5012065;28;45320;-58
2021/09/02 12:21:28;;;;;;;;;13.25;9.00;;;;;24.30;45.16;101970.69;5002233;28;45416;-57
2021/09/02 12:24:11;;;;;;;;;19.25;13.00;;;;;24.32;44.80;101967.84;5001538;28;45460;-58
2021/09/02 12:26:47;;;;;;;;;15.75;12.25;;;;;24.35;44.67;101975.66;5011945;28;45382;-58
2021/09/02 12:29:16;;;;;;;;;21.50;13.75;;;;;24.41;44.20;101978.59;5014835;28;45193;-58
2021/09/02 12:31:42;;;;;;;;;13.50;12.00;;;;;24.39;44.64;101974.34;5001380;28;45264;-58
2021/09/02 12:34:23;;;;;;;;;13.75;12.00;;;;;24.43;44.30;101971.22;5001247;28;45289;-58
2021/09/02 12:37:01;;;;;;;;;11.75;10.50;;;;;24.50;43.81;101974.16;5000894;28;45619;-58
2021/09/02 12:39:29;;;;;;;;;13.50;11.00;;;;;24.52;43.99;101961.38;5001204;28;45476;-58
2021/09/02 12:42:01;;;;;;;;;15.00;12.75;;;;;24.50;43.56;101952.59;5001176;28;45298;-58
2021/09/02 12:44:38;;;;;;;;;10.25;10.25;;;;;24.55;43.42;101947.59;5001596;28;45309;-58
2021/09/02 12:47:13;;;;;;;;;12.50;10.50;;;;;24.55;43.24;101952.13;5001198;28;45400;-58
2021/09/02 12:49:48;;;;;;;;;16.25;13.00;;;;;24.57;43.52;101956.38;5000616;28;45413;-57
2021/09/02 12:52:20;;;;;;;;;12.00;10.50;;;;;24.63;43.25;101952.22;5001104;28;45357;-57
2021/09/02 12:55:16;;;;;;;;;13.25;12.25;;;;;24.70;43.10;101954.16;5001150;28;45252;-57
2021/09/02 12:57:46;;;;;;;;;14.25;13.00;;;;;24.78;43.01;101953.38;5000663;28;45286;-57
2021/09/02 13:00:21;;;;;;;;;16.25;13.50;;;;;24.84;43.37;101949.22;5008080;28;45303;-57
2021/09/02 13:02:48;;;;;;;;;19.25;14.00;;;;;24.85;43.28;101954.44;5020875;28;45373;-57
2021/09/02 13:05:15;;;;;;;;;15.75;14.50;;;;;24.86;42.93;101947.22;5020651;28;45415;-57
2021/09/02 13:07:49;;;;;;;;;13.00;11.75;;;;;24.90;43.57;101954.00;5020450;28;45332;-57
2021/09/02 13:10:17;;;;;;;;;21.00;17.00;;;;;24.93;42.60;101943.75;5020680;28;45292;-58
2021/09/02 13:12:44;;;;;;;;;13.50;12.00;;;;;24.94;43.06;101945.44;5020737;28;45269;-57
2021/09/02 13:15:10;;;;;;;;;14.00;13.00;;;;;25.01;43.48;101942.97;5020706;28;45343;-57
2021/09/02 13:17:36;;;;;;;;;11.75;11.00;;;;;25.07;43.29;101933.44;5020749;28;45265;-56
2021/09/02 13:20:01;;;;;;;;;15.50;13.00;;;;;25.12;42.95;101925.72;5020523;28;45331;-58
2021/09/02 13:22:27;;;;;;;;;12.00;10.50;;;;;25.16;42.51;101925.25;5016839;28;45335;-57
2021/09/02 13:24:52;;;;;;;;;12.00;12.00;;;;;25.19;42.54;101940.25;5001220;28;45333;-57
2021/09/02 13:27:18;;;;;;;;;14.75;11.75;;;;;25.22;42.44;101929.19;5000576;28;45918;-57
2021/09/02 13:29:43;;;;;;;;;14.00;13.75;;;;;25.21;42.04;101931.03;5005480;28;45558;-57
2021/09/02 13:32:09;;;;;;;;;13.00;11.25;;;;;25.23;42.30;101925.47;5000844;28;45214;-58
2021/09/02 13:34:35;;;;;;;;;13.00;11.25;;;;;25.27;42.28;101922.28;5000633;28;45226;-58
2021/09/02 13:37:00;;;;;;;;;13.00;12.50;;;;;25.30;42.07;101908.50;5000373;28;45416;-58
2021/09/02 13:39:26;;;;;;;;;14.00;12.50;;;;;25.30;41.87;101905.81;5001697;28;45371;-59
2021/09/02 13:41:52;;;;;;;;;15.50;12.00;;;;;25.33;42.50;101910.88;5004204;28;45226;-58
2021/09/02 13:44:18;;;;;;;;;13.00;12.00;;;;;25.34;41.85;101909.88;5004482;28;45165;-58
2021/09/02 13:46:44;;;;;;;;;10.75;10.00;;;;;25.37;41.76;101907.88;5004044;28;45327;-58
2021/09/02 13:49:10;;;;;;;;;12.25;10.75;;;;;25.40;41.67;101902.16;5004045;28;45296;-58
2021/09/02 13:51:36;;;;;;;;;11.00;10.00;;;;;25.41;41.80;101907.38;5003516;28;45256;-58
2021/09/02 13:54:02;;;;;;;;;11.25;10.75;;;;;25.40;41.74;101899.44;5004212;28;45325;-58
2021/09/02 13:56:28;;;;;;;;;14.75;12.75;;;;;25.41;41.97;101899.28;5004012;28;45377;-57
2021/09/02 13:58:53;;;;;;;;;13.50;12.50;;;;;25.41;41.71;101893.03;5003967;28;45325;-57
2021/09/02 14:01:19;;;;;;;;;13.00;11.00;;;;;25.42;41.18;101889.34;5004050;28;45281;-58
2021/09/02 14:03:44;;;;;;;;;12.50;10.50;;;;;25.46;41.01;101893.44;5004061;28;45622;-58
2021/09/02 14:06:10;;;;;;;;;15.00;12.50;;;;;25.49;41.05;101895.78;5003455;28;45344;-58
2021/09/02 14:08:36;;;;;;;;;9.25;8.25;;;;;25.48;41.15;101888.72;5003834;28;45289;-58
2021/09/02 14:11:02;;;;;;;;;10.50;10.00;;;;;25.50;40.72;101879.44;5003813;28;45226;-58
2021/09/02 14:13:27;;;;;;;;;11.75;10.25;;;;;25.51;40.93;101889.22;5004029;28;45302;-58
2021/09/02 14:15:53;;;;;;;;;13.50;11.00;;;;;25.54;40.93;101878.13;5003788;28;45401;-58
2021/09/02 14:18:18;;;;;;;;;14.00;13.50;;;;;25.57;40.85;101877.78;5003735;28;45249;-58
2021/09/02 14:20:45;;;;;;;;;11.00;11.00;;;;;25.64;41.28;101880.69;5003422;28;45275;-58
2021/09/02 14:23:11;;;;;;;;;11.50;10.75;;;;;25.67;40.72;101887.59;5003941;28;45459;-58
2021/09/02 14:25:36;;;;;;;;;16.50;14.50;;;;;25.67;40.44;101882.22;5006716;28;45802;-58
2021/09/02 14:28:02;;;;;;;;;9.00;8.50;;;;;25.67;40.89;101874.97;5023088;28;45319;-58
2021/09/02 14:30:28;;;;;;;;;19.00;12.75;;;;;25.70;40.33;101873.81;5006806;28;45328;-58
2021/09/02 14:32:54;;;;;;;;;11.00;11.00;;;;;25.71;40.95;101859.31;5003729;28;45269;-58
2021/09/02 14:35:19;;;;;;;;;11.00;10.25;;;;;25.74;41.76;101857.13;5002873;28;45297;-57
2021/09/02 14:37:45;;;;;;;;;13.50;11.25;;;;;25.78;41.03;101861.22;5003363;28;45260;-57
2021/09/02 14:40:10;;;;;;;;;14.00;10.75;;;;;25.81;40.65;101862.75;5003179;28;45246;-57
2021/09/02 14:42:37;;;;;;;;;12.50;11.50;;;;;25.77;40.65;101864.94;5003487;28;45240;-57
2021/09/02 14:45:03;;;;;;;;;8.50;8.25;;;;;25.76;40.54;101857.84;5002941;28;45457;-57
2021/09/02 14:47:28;;;;;;;;;10.50;8.75;;;;;25.77;39.75;101856.00;5002959;28;45372;-58
2021/09/02 14:49:54;;;;;;;;;11.00;9.25;;;;;25.75;40.21;101855.28;5002298;28;45435;-57
2021/09/02 14:52:19;;;;;;;;;8.25;8.00;;;;;25.74;40.12;101838.25;5003183;28;45469;-58
2021/09/02 14:54:45;;;;;;;;;9.75;9.75;;;;;25.77;39.91;101846.03;5002912;28;46281;-57
2021/09/02 14:57:10;;;;;;;;;9.50;9.50;;;;;25.76;40.07;101836.25;5003381;28;45317;-57
2021/09/02 14:59:36;;;;;;;;;11.75;10.00;;;;;25.77;39.98;101834.41;5002355;28;45461;-57
2021/09/02 15:02:01;;;;;;;;;13.50;10.00;;;;;25.78;40.43;101822.59;5003220;28;45344;-57
2021/09/02 15:04:27;;;;;;;;;10.75;10.75;;;;;25.82;40.25;101826.63;5002458;28;45378;-58
2021/09/02 15:06:52;;;;;;;;;10.00;9.00;;;;;25.85;40.44;101819.06;5002849;28;45436;-58
2021/09/02 15:09:18;;;;;;;;;11.75;10.00;;;;;25.90;39.98;101815.84;5002817;28;45284;-57
2021/09/02 15:11:43;;;;;;;;;9.75;9.00;;;;;25.92;39.86;101829.22;5002947;28;45396;-57
2021/09/02 15:14:09;;;;;;;;;8.75;8.75;;;;;25.89;38.98;101822.28;5002716;28;45422;-57
2021/09/02 15:16:35;;;;;;;;;9.75;8.50;;;;;25.89;38.98;101822.28;5002829;28;45233;-57
2021/09/02 15:19:02;;;;;;;;;15.25;12.75;;;;;25.92;39.01;101815.72;5002752;28;45309;-58
2021/09/02 15:21:28;;;;;;;;;11.25;10.50;;;;;25.94;39.32;101805.59;5002607;28;45333;-58
2021/09/02 15:23:53;;;;;;;;;9.50;9.50;;;;;25.97;38.96;101807.94;5002452;28;46160;-57
2021/09/02 15:26:19;;;;;;;;;11.50;10.00;;;;;26.02;38.79;101809.16;5011631;28;45288;-57
2021/09/02 15:28:44;;;;;;;;;9.25;8.00;;;;;26.06;38.65;101796.16;5019904;28;45346;-58
2021/09/02 15:31:10;;;;;;;;;12.50;9.75;;;;;26.09;38.18;101798.53;5002719;28;45304;-57
2021/09/02 15:33:37;;;;;;;;;9.75;8.75;;;;;26.13;38.31;101799.88;5002498;28;46176;-57
2021/09/02 15:36:04;;;;;;;;;10.50;8.00;;;;;26.17;38.44;101796.69;5000897;28;45345;-57
2021/09/02 15:38:30;;;;;;;;;8.00;7.00;;;;;26.21;38.68;101799.88;5000996;28;45947;-58
2021/09/02 15:40:56;;;;;;;;;9.75;8.75;;;;;26.26;38.56;101796.69;5012507;28;45259;-58
2021/09/02 15:43:21;;;;;;;;;10.25;8.50;;;;;26.23;38.56;101784.38;5003235;28;45430;-58
2021/09/02 15:45:48;;;;;;;;;9.75;9.50;;;;;26.18;38.72;101786.72;5001822;28;45621;-58
2021/09/02 15:48:15;;;;;;;;;8.25;8.25;;;;;26.15;38.80;101771.72;5002040;28;45347;-58
2021/09/02 15:50:41;;;;;;;;;8.75;8.00;;;;;26.15;38.38;101779.81;5001889;28;45464;-58
2021/09/02 15:53:07;;;;;;;;;11.50;9.25;;;;;26.12;38.39;101765.78;5001346;28;45537;-58
2021/09/02 15:55:33;;;;;;;;;8.75;8.00;;;;;26.14;38.46;101774.53;5001995;28;45445;-58
2021/09/02 15:57:58;;;;;;;;;10.00;10.00;;;;;26.18;38.36;101775.91;5001908;28;45400;-57
2021/09/02 16:00:24;;;;;;;;;9.25;9.25;;;;;26.20;38.58;101773.03;5002212;28;45245;-56
2021/09/02 16:02:52;;;;;;;;;8.25;8.25;;;;;26.25;38.46;101774.25;5000739;28;45463;-57
2021/09/02 16:05:18;;;;;;;;;11.00;9.00;;;;;26.27;38.23;101760.56;5001480;28;45297;-57
2021/09/02 16:07:44;;;;;;;;;10.75;8.50;;;;;26.25;38.32;101762.59;5001656;28;45356;-59
2021/09/02 16:10:11;;;;;;;;;12.00;9.00;;;;;26.21;37.64;101767.47;5007799;28;45351;-58
2021/09/02 16:12:38;;;;;;;;;8.25;8.25;;;;;26.20;38.12;101754.97;5004403;28;45330;-58
2021/09/02 16:15:05;;;;;;;;;11.25;9.50;;;;;26.20;38.01;101760.38;5001454;28;45447;-57
2021/09/02 16:17:32;;;;;;;;;11.25;10.25;;;;;26.21;38.04;101762.06;5001612;28;45660;-57
2021/09/02 16:19:58;;;;;;;;;8.00;7.25;;;;;26.19;37.96;101756.00;5001354;28;45487;-58
2021/09/02 16:22:24;;;;;;;;;6.75;6.75;;;;;26.16;38.09;101756.34;5001020;28;45489;-57
2021/09/02 16:24:49;;;;;;;;;12.50;10.00;;;;;26.14;37.59;101748.38;5001145;28;45388;-57
2021/09/02 16:27:15;;;;;;;;;8.00;7.50;;;;;26.14;38.06;101753.78;5017901;28;45377;-58
2021/09/02 16:29:41;;;;;;;;;10.50;9.25;;;;;26.15;37.26;101749.25;5011388;28;45310;-57
2021/09/02 16:32:07;;;;;;;;;8.00;8.00;;;;;26.14;38.01;101748.38;5001274;28;45371;-57
2021/09/02 16:34:34;;;;;;;;;9.50;7.50;;;;;26.17;37.92;101744.53;5001024;28;45345;-57
2021/09/02 16:37:02;;;;;;;;;10.75;10.25;;;;;26.17;38.08;101747.22;5003134;28;45167;-57
2021/09/02 16:39:28;;;;;;;;;9.00;8.00;;;;;26.14;37.53;101737.59;5001240;28;45443;-57
2021/09/02 16:41:55;;;;;;;;;11.25;8.00;;;;;26.09;37.58;101737.25;5000866;28;45539;-57